Albertville, Wisconsin
Current Conditions -  °F | °C
As of 2:35 PM on Sunday 25 Jan 2015 (Local Time) from KLUM Reporting Station
Scattered Clouds Scattered Clouds  
Wind Chill: 20°   Ceiling: Unl
Heat Index: 26°   Visibility: 10mi
Dew Point: 11°   Wind: 5mph
Humidity: 55%   Direction: 40°NE
Pressure: 30.03"   Gusts: NA
Location:  45.0099°N, 91.7075°W
Report Text: KLUM 252035Z AUTO 04004KT 10SM SCT120 M04/M11 A3003 RMK AO2 T10361115
Loading
Personal Weather Stations






























Interactive Weather Map New forecast layout! Learn more

10-Day Weather Forecast

Advertisements
Track Severe Weather on mobile